Detroit, Michigan
Traffic Map
Current Weather Conditions
Detroit, Michigan
Overcast Light Rain
Overcast
59°
Feels Like: 59°
Wind Chill: 59° Ceiling: 400
Heat Index: 59° Visibility: 2.5mi
Dew Point: 59° Wind: 7mph
Humidity: 100% Direction: 80° (E)
Pressure: 30.07in Gusts: 0mph
Raw Report DataCYQG 010700Z 08006KT 2 1/2SM -RA BR OVC004 15/15 A3007 RMK SF8 SLP183
Traffic Incident Summary
Active as of:
Severity:
Category:
InformationThere was an issue retrieving the traffic information for this location. Please try a different location or try again shortly.
Advertisements
Track Severe Weather on mobile